Arrow Rock, Missouri
Current Conditions -  °F | °C
As of 8:15 PM on Tuesday 21 Oct 2014 (Local Time) from KVER Reporting Station
Haze Haze  
Wind Chill: 59°   Ceiling: 500
Heat Index: 59°   Visibility: 0.75mi
Dew Point: 44°   Wind: 7mph
Humidity: 57%   Direction: 70°ENE
Pressure: 30.12"   Gusts: NA
Location:  39.07°N, 92.95°W
Report Text: KVER 220115Z AUTO 07006KT 3/4SM HZ VV005 15/07 A3012 RMK AO2 T01520068
Loading
Personal Weather Stations






























Interactive Weather Map
Tropical Storm Tracking
New forecast layout! Learn more

10-Day Weather Forecast

Advertisements
Track Severe Weather on mobile